sensor_id;sensor_type;location;lat;lon;timestamp;pressure;altitude;pressure_sealevel;temperature;humidity
21182;BME280;10749;46.296;7.524;2023-07-24T00:00:24;94502.34;;;27.84;24.52
21182;BME280;10749;46.296;7.524;2023-07-24T00:02:50;94502.06;;;27.86;24.63
21182;BME280;10749;46.296;7.524;2023-07-24T00:05:15;94499.03;;;27.87;24.72
21182;BME280;10749;46.296;7.524;2023-07-24T00:07:40;94490.59;;;27.89;24.57
21182;BME280;10749;46.296;7.524;2023-07-24T00:10:06;94494.19;;;27.84;25.18
21182;BME280;10749;46.296;7.524;2023-07-24T00:12:31;94495.00;;;27.85;25.09
21182;BME280;10749;46.296;7.524;2023-07-24T00:14:57;94493.78;;;27.77;24.41
21182;BME280;10749;46.296;7.524;2023-07-24T00:17:22;94497.88;;;27.75;24.60
21182;BME280;10749;46.296;7.524;2023-07-24T00:19:48;94493.03;;;27.72;24.26
21182;BME280;10749;46.296;7.524;2023-07-24T00:22:14;94492.53;;;27.70;24.57
21182;BME280;10749;46.296;7.524;2023-07-24T00:24:39;94493.09;;;27.67;24.63
21182;BME280;10749;46.296;7.524;2023-07-24T00:27:04;94479.75;;;27.51;24.85
21182;BME280;10749;46.296;7.524;2023-07-24T00:29:30;94485.88;;;27.38;24.81
21182;BME280;10749;46.296;7.524;2023-07-24T00:31:55;94496.41;;;27.21;25.50
21182;BME280;10749;46.296;7.524;2023-07-24T00:34:20;94489.50;;;27.10;25.19
21182;BME280;10749;46.296;7.524;2023-07-24T00:36:46;94486.28;;;27.08;24.91
21182;BME280;10749;46.296;7.524;2023-07-24T00:39:15;94491.94;;;27.12;25.44
21182;BME280;10749;46.296;7.524;2023-07-24T00:41:41;94477.00;;;27.09;25.31
21182;BME280;10749;46.296;7.524;2023-07-24T00:44:07;94479.81;;;27.04;25.48
21182;BME280;10749;46.296;7.524;2023-07-24T00:46:33;94480.69;;;26.99;25.22
21182;BME280;10749;46.296;7.524;2023-07-24T00:49:00;94482.13;;;26.92;25.57
21182;BME280;10749;46.296;7.524;2023-07-24T00:51:27;94484.09;;;26.86;25.87
21182;BME280;10749;46.296;7.524;2023-07-24T00:53:56;94480.38;;;26.77;25.71
21182;BME280;10749;46.296;7.524;2023-07-24T00:56:22;94480.91;;;26.79;25.66
21182;BME280;10749;46.296;7.524;2023-07-24T00:58:48;94464.66;;;26.74;24.86
21182;BME280;10749;46.296;7.524;2023-07-24T01:01:18;94464.72;;;26.69;25.29
21182;BME280;10749;46.296;7.524;2023-07-24T01:03:44;94463.22;;;26.58;25.91
21182;BME280;10749;46.296;7.524;2023-07-24T01:06:09;94473.31;;;26.52;26.04
21182;BME280;10749;46.296;7.524;2023-07-24T01:08:35;94459.34;;;26.40;26.51
21182;BME280;10749;46.296;7.524;2023-07-24T01:11:10;94458.06;;;26.33;26.87
21182;BME280;10749;46.296;7.524;2023-07-24T01:13:41;94463.25;;;26.29;27.05
21182;BME280;10749;46.296;7.524;2023-07-24T01:16:13;94467.63;;;26.25;26.81
21182;BME280;10749;46.296;7.524;2023-07-24T01:18:39;94464.66;;;26.22;26.69
21182;BME280;10749;46.296;7.524;2023-07-24T01:21:08;94458.72;;;26.20;26.85
21182;BME280;10749;46.296;7.524;2023-07-24T01:23:45;94446.22;;;26.18;26.77
21182;BME280;10749;46.296;7.524;2023-07-24T01:26:16;94451.41;;;26.20;26.71
21182;BME280;10749;46.296;7.524;2023-07-24T01:28:42;94439.16;;;26.23;25.97
21182;BME280;10749;46.296;7.524;2023-07-24T01:31:07;94436.75;;;26.21;26.30
21182;BME280;10749;46.296;7.524;2023-07-24T01:33:32;94420.50;;;26.16;26.59
21182;BME280;10749;46.296;7.524;2023-07-24T01:36:02;94417.34;;;26.04;27.25
21182;BME280;10749;46.296;7.524;2023-07-24T01:38:28;94415.19;;;26.01;27.07
21182;BME280;10749;46.296;7.524;2023-07-24T01:40:56;94417.91;;;26.01;27.08
21182;BME280;10749;46.296;7.524;2023-07-24T01:43:21;94405.94;;;26.07;26.52
21182;BME280;10749;46.296;7.524;2023-07-24T01:45:47;94411.34;;;26.07;26.58
21182;BME280;10749;46.296;7.524;2023-07-24T01:48:12;94400.09;;;25.95;27.39
21182;BME280;10749;46.296;7.524;2023-07-24T01:50:37;94389.03;;;25.86;27.91
21182;BME280;10749;46.296;7.524;2023-07-24T01:53:03;94393.19;;;25.79;27.29
21182;BME280;10749;46.296;7.524;2023-07-24T01:55:28;94393.69;;;25.81;27.30
21182;BME280;10749;46.296;7.524;2023-07-24T01:57:53;94394.50;;;25.81;27.24
21182;BME280;10749;46.296;7.524;2023-07-24T02:00:18;94389.13;;;25.76;27.56
21182;BME280;10749;46.296;7.524;2023-07-24T02:02:44;94402.97;;;25.75;27.58
21182;BME280;10749;46.296;7.524;2023-07-24T02:05:09;94397.88;;;25.68;27.51
21182;BME280;10749;46.296;7.524;2023-07-24T02:07:35;94402.44;;;25.72;27.46
21182;BME280;10749;46.296;7.524;2023-07-24T02:10:00;94397.63;;;25.64;27.62
21182;BME280;10749;46.296;7.524;2023-07-24T02:12:25;94402.31;;;25.59;27.95
21182;BME280;10749;46.296;7.524;2023-07-24T02:14:51;94403.66;;;25.51;28.19
21182;BME280;10749;46.296;7.524;2023-07-24T02:17:17;94402.59;;;25.47;28.39
21182;BME280;10749;46.296;7.524;2023-07-24T02:19:43;94396.13;;;25.43;28.58
21182;BME280;10749;46.296;7.524;2023-07-24T02:22:09;94390.25;;;25.36;28.68
21182;BME280;10749;46.296;7.524;2023-07-24T02:24:34;94380.47;;;25.40;27.71
21182;BME280;10749;46.296;7.524;2023-07-24T02:27:00;94384.50;;;25.43;27.58
21182;BME280;10749;46.296;7.524;2023-07-24T02:29:25;94375.03;;;25.40;28.16
21182;BME280;10749;46.296;7.524;2023-07-24T02:31:50;94376.19;;;25.34;28.55
21182;BME280;10749;46.296;7.524;2023-07-24T02:34:16;94388.34;;;25.37;28.05
21182;BME280;10749;46.296;7.524;2023-07-24T02:36:41;94389.66;;;25.39;27.68
21182;BME280;10749;46.296;7.524;2023-07-24T02:39:07;94389.13;;;25.42;27.56
21182;BME280;10749;46.296;7.524;2023-07-24T02:41:32;94367.72;;;25.41;27.75
21182;BME280;10749;46.296;7.524;2023-07-24T02:43:57;94361.78;;;25.39;28.49
21182;BME280;10749;46.296;7.524;2023-07-24T02:46:23;94352.34;;;25.31;28.39
21182;BME280;10749;46.296;7.524;2023-07-24T02:48:50;94337.69;;;25.37;28.11
21182;BME280;10749;46.296;7.524;2023-07-24T02:51:15;94320.97;;;25.30;28.77
21182;BME280;10749;46.296;7.524;2023-07-24T02:53:40;94310.13;;;25.30;28.45
21182;BME280;10749;46.296;7.524;2023-07-24T02:56:06;94300.63;;;25.33;28.46
21182;BME280;10749;46.296;7.524;2023-07-24T02:58:31;94286.50;;;25.36;28.04
21182;BME280;10749;46.296;7.524;2023-07-24T03:01:06;94277.06;;;25.33;28.44
21182;BME280;10749;46.296;7.524;2023-07-24T03:03:35;94277.63;;;25.30;28.57
21182;BME280;10749;46.296;7.524;2023-07-24T03:06:01;94249.22;;;25.27;28.70
21182;BME280;10749;46.296;7.524;2023-07-24T03:08:27;94258.41;;;25.26;28.95
21182;BME280;10749;46.296;7.524;2023-07-24T03:10:52;94264.13;;;25.25;28.87
21182;BME280;10749;46.296;7.524;2023-07-24T03:13:17;94263.59;;;25.23;29.21
21182;BME280;10749;46.296;7.524;2023-07-24T03:15:43;94266.53;;;25.26;28.68
21182;BME280;10749;46.296;7.524;2023-07-24T03:18:08;94278.41;;;25.31;28.96
21182;BME280;10749;46.296;7.524;2023-07-24T03:20:33;94290.13;;;25.26;29.00
21182;BME280;10749;46.296;7.524;2023-07-24T03:22:59;94297.69;;;25.29;28.87
21182;BME280;10749;46.296;7.524;2023-07-24T03:25:24;94311.19;;;25.34;28.90
21182;BME280;10749;46.296;7.524;2023-07-24T03:27:49;94342.88;;;25.34;27.93
21182;BME280;10749;46.296;7.524;2023-07-24T03:30:15;94359.97;;;25.29;27.65
21182;BME280;10749;46.296;7.524;2023-07-24T03:32:40;94399.78;;;25.28;28.47
21182;BME280;10749;46.296;7.524;2023-07-24T03:35:06;94441.97;;;25.35;29.31
21182;BME280;10749;46.296;7.524;2023-07-24T03:37:34;94483.47;;;25.30;29.87
21182;BME280;10749;46.296;7.524;2023-07-24T03:39:59;94522.81;;;25.17;31.39
21182;BME280;10749;46.296;7.524;2023-07-24T03:42:29;94585.09;;;25.02;31.42
21182;BME280;10749;46.296;7.524;2023-07-24T03:44:56;94662.28;;;24.79;32.70
21182;BME280;10749;46.296;7.524;2023-07-24T03:47:22;94742.63;;;24.39;35.42
21182;BME280;10749;46.296;7.524;2023-07-24T03:49:47;94804.97;;;24.12;37.22
21182;BME280;10749;46.296;7.524;2023-07-24T03:52:12;94822.75;;;23.98;37.61
21182;BME280;10749;46.296;7.524;2023-07-24T03:54:38;94857.50;;;23.79;40.53
21182;BME280;10749;46.296;7.524;2023-07-24T03:57:03;94835.50;;;23.28;40.33
21182;BME280;10749;46.296;7.524;2023-07-24T03:59:30;94673.13;;;23.10;39.44
21182;BME280;10749;46.296;7.524;2023-07-24T04:01:55;94768.19;;;23.17;39.55
21182;BME280;10749;46.296;7.524;2023-07-24T04:04:21;94745.50;;;23.13;38.27
21182;BME280;10749;46.296;7.524;2023-07-24T04:06:46;94757.16;;;23.23;39.08
21182;BME280;10749;46.296;7.524;2023-07-24T04:09:12;94748.28;;;23.23;39.76
21182;BME280;10749;46.296;7.524;2023-07-24T04:11:43;94714.66;;;23.04;40.45
21182;BME280;10749;46.296;7.524;2023-07-24T04:14:09;94702.69;;;22.89;41.51
21182;BME280;10749;46.296;7.524;2023-07-24T04:16:35;94687.53;;;22.83;42.77
21182;BME280;10749;46.296;7.524;2023-07-24T04:19:00;94682.13;;;22.83;38.43
21182;BME280;10749;46.296;7.524;2023-07-24T04:21:25;94670.47;;;22.78;38.22
21182;BME280;10749;46.296;7.524;2023-07-24T04:23:51;94673.91;;;22.68;40.71
21182;BME280;10749;46.296;7.524;2023-07-24T04:26:16;94658.25;;;22.65;41.23
21182;BME280;10749;46.296;7.524;2023-07-24T04:28:41;94626.13;;;22.64;37.81
21182;BME280;10749;46.296;7.524;2023-07-24T04:31:07;94617.91;;;22.43;36.63
21182;BME280;10749;46.296;7.524;2023-07-24T04:33:32;94617.81;;;22.33;37.64
21182;BME280;10749;46.296;7.524;2023-07-24T04:35:57;94612.34;;;22.23;36.97
21182;BME280;10749;46.296;7.524;2023-07-24T04:38:23;94617.41;;;22.20;38.46
21182;BME280;10749;46.296;7.524;2023-07-24T04:40:48;94629.47;;;22.12;38.40
21182;BME280;10749;46.296;7.524;2023-07-24T04:43:13;94620.09;;;22.15;40.30
21182;BME280;10749;46.296;7.524;2023-07-24T04:45:39;94608.22;;;22.16;40.20
21182;BME280;10749;46.296;7.524;2023-07-24T04:48:04;94605.03;;;22.19;39.37
21182;BME280;10749;46.296;7.524;2023-07-24T04:50:30;94604.03;;;22.30;39.37
21182;BME280;10749;46.296;7.524;2023-07-24T04:52:55;94600.91;;;22.43;40.06
21182;BME280;10749;46.296;7.524;2023-07-24T04:55:21;94595.84;;;22.51;40.95
21182;BME280;10749;46.296;7.524;2023-07-24T04:57:46;94591.59;;;22.61;40.41
21182;BME280;10749;46.296;7.524;2023-07-24T05:00:12;94578.41;;;22.64;39.25
21182;BME280;10749;46.296;7.524;2023-07-24T05:02:37;94562.28;;;22.69;40.75
21182;BME280;10749;46.296;7.524;2023-07-24T05:05:03;94551.78;;;22.73;41.64
21182;BME280;10749;46.296;7.524;2023-07-24T05:07:28;94538.59;;;22.81;39.66
21182;BME280;10749;46.296;7.524;2023-07-24T05:09:54;94560.47;;;22.85;41.28
21182;BME280;10749;46.296;7.524;2023-07-24T05:12:19;94573.19;;;22.89;40.05
21182;BME280;10749;46.296;7.524;2023-07-24T05:14:44;94562.88;;;22.81;38.93
21182;BME280;10749;46.296;7.524;2023-07-24T05:17:10;94551.97;;;22.66;38.70
21182;BME280;10749;46.296;7.524;2023-07-24T05:19:35;94544.38;;;22.58;38.67
21182;BME280;10749;46.296;7.524;2023-07-24T05:22:00;94538.41;;;22.51;38.93
21182;BME280;10749;46.296;7.524;2023-07-24T05:24:25;94536.22;;;22.53;38.45
21182;BME280;10749;46.296;7.524;2023-07-24T05:26:51;94527.16;;;22.64;41.18
21182;BME280;10749;46.296;7.524;2023-07-24T05:29:16;94530.47;;;22.76;41.50
21182;BME280;10749;46.296;7.524;2023-07-24T05:31:41;94540.19;;;22.77;41.72
21182;BME280;10749;46.296;7.524;2023-07-24T05:34:07;94541.81;;;22.78;41.74
21182;BME280;10749;46.296;7.524;2023-07-24T05:36:33;94557.75;;;22.80;42.09
21182;BME280;10749;46.296;7.524;2023-07-24T05:38:58;94555.03;;;22.80;41.10
21182;BME280;10749;46.296;7.524;2023-07-24T05:41:23;94553.69;;;22.77;42.03
21182;BME280;10749;46.296;7.524;2023-07-24T05:43:49;94555.81;;;22.75;43.33
21182;BME280;10749;46.296;7.524;2023-07-24T05:46:15;94554.19;;;22.74;41.50
21182;BME280;10749;46.296;7.524;2023-07-24T05:48:40;94577.34;;;22.65;39.54
21182;BME280;10749;46.296;7.524;2023-07-24T05:51:06;94588.63;;;22.62;40.83
21182;BME280;10749;46.296;7.524;2023-07-24T05:53:31;94611.25;;;22.61;40.14
21182;BME280;10749;46.296;7.524;2023-07-24T05:55:57;94614.47;;;22.58;40.62
21182;BME280;10749;46.296;7.524;2023-07-24T05:58:23;94620.97;;;22.62;41.62
21182;BME280;10749;46.296;7.524;2023-07-24T06:00:49;94630.72;;;22.63;41.45
21182;BME280;10749;46.296;7.524;2023-07-24T06:03:14;94640.44;;;22.64;41.76
21182;BME280;10749;46.296;7.524;2023-07-24T06:05:39;94644.97;;;22.59;40.69
21182;BME280;10749;46.296;7.524;2023-07-24T06:08:04;94664.06;;;22.52;39.62
21182;BME280;10749;46.296;7.524;2023-07-24T06:10:30;94688.81;;;22.44;39.31
21182;BME280;10749;46.296;7.524;2023-07-24T06:12:55;94722.28;;;22.48;40.95
21182;BME280;10749;46.296;7.524;2023-07-24T06:15:20;94740.13;;;22.54;41.54
21182;BME280;10749;46.296;7.524;2023-07-24T06:17:46;94775.75;;;22.56;41.69
21182;BME280;10749;46.296;7.524;2023-07-24T06:20:11;94786.56;;;22.61;42.22
21182;BME280;10749;46.296;7.524;2023-07-24T06:22:36;94803.91;;;22.65;43.09
21182;BME280;10749;46.296;7.524;2023-07-24T06:25:01;94802.28;;;22.64;42.60
21182;BME280;10749;46.296;7.524;2023-07-24T06:27:27;94802.81;;;22.66;43.87
21182;BME280;10749;46.296;7.524;2023-07-24T06:29:52;94796.56;;;22.61;41.96
21182;BME280;10749;46.296;7.524;2023-07-24T06:32:17;94795.69;;;22.55;40.82
21182;BME280;10749;46.296;7.524;2023-07-24T06:34:43;94792.34;;;22.43;40.52
21182;BME280;10749;46.296;7.524;2023-07-24T06:37:08;94801.94;;;22.34;40.41
21182;BME280;10749;46.296;7.524;2023-07-24T06:39:33;94818.03;;;22.24;40.32
21182;BME280;10749;46.296;7.524;2023-07-24T06:41:58;94840.06;;;22.21;39.84
21182;BME280;10749;46.296;7.524;2023-07-24T06:44:24;94862.66;;;22.15;39.87
21182;BME280;10749;46.296;7.524;2023-07-24T06:46:49;94901.66;;;22.07;40.47
21182;BME280;10749;46.296;7.524;2023-07-24T06:49:15;94906.44;;;22.05;40.62
21182;BME280;10749;46.296;7.524;2023-07-24T06:51:40;94931.28;;;22.07;40.86
21182;BME280;10749;46.296;7.524;2023-07-24T06:54:05;94925.19;;;22.17;41.31
21182;BME280;10749;46.296;7.524;2023-07-24T06:56:31;94782.97;;;22.24;42.34
21182;BME280;10749;46.296;7.524;2023-07-24T06:58:57;94702.34;;;22.22;42.56
21182;BME280;10749;46.296;7.524;2023-07-24T07:01:22;94735.63;;;22.06;40.92
21182;BME280;10749;46.296;7.524;2023-07-24T07:03:47;94742.00;;;22.00;41.42
21182;BME280;10749;46.296;7.524;2023-07-24T07:06:13;94746.78;;;21.93;42.12
21182;BME280;10749;46.296;7.524;2023-07-24T07:08:38;94727.50;;;21.84;42.63
21182;BME280;10749;46.296;7.524;2023-07-24T07:11:03;94709.41;;;21.80;42.66
21182;BME280;10749;46.296;7.524;2023-07-24T07:13:29;94688.88;;;21.74;43.00
21182;BME280;10749;46.296;7.524;2023-07-24T07:15:55;94673.50;;;21.74;43.13
21182;BME280;10749;46.296;7.524;2023-07-24T07:18:20;94682.28;;;21.86;43.47
21182;BME280;10749;46.296;7.524;2023-07-24T07:20:46;94663.16;;;21.88;43.47
21182;BME280;10749;46.296;7.524;2023-07-24T07:23:12;94637.25;;;21.82;43.64
21182;BME280;10749;46.296;7.524;2023-07-24T07:25:38;94623.50;;;21.83;43.19
21182;BME280;10749;46.296;7.524;2023-07-24T07:28:03;94622.22;;;21.86;43.35
21182;BME280;10749;46.296;7.524;2023-07-24T07:30:28;94611.34;;;22.02;44.19
21182;BME280;10749;46.296;7.524;2023-07-24T07:32:54;94597.41;;;22.11;45.42
21182;BME280;10749;46.296;7.524;2023-07-24T07:35:19;94576.44;;;22.18;44.22
21182;BME280;10749;46.296;7.524;2023-07-24T07:37:44;94570.47;;;22.16;43.81
21182;BME280;10749;46.296;7.524;2023-07-24T07:40:10;94562.91;;;22.13;44.07
21182;BME280;10749;46.296;7.524;2023-07-24T07:42:35;94566.69;;;22.12;44.76
21182;BME280;10749;46.296;7.524;2023-07-24T07:45:01;94551.03;;;22.08;44.32
21182;BME280;10749;46.296;7.524;2023-07-24T07:47:26;94537.84;;;22.07;45.23
21182;BME280;10749;46.296;7.524;2023-07-24T07:49:51;94544.09;;;22.18;45.22
21182;BME280;10749;46.296;7.524;2023-07-24T07:52:17;94559.94;;;22.46;46.04
21182;BME280;10749;46.296;7.524;2023-07-24T07:54:46;94564.97;;;22.74;45.84
21182;BME280;10749;46.296;7.524;2023-07-24T07:57:11;94593.16;;;22.98;46.10
21182;BME280;10749;46.296;7.524;2023-07-24T07:59:37;94577.03;;;23.09;45.73
21182;BME280;10749;46.296;7.524;2023-07-24T08:02:02;94589.47;;;23.10;45.89
21182;BME280;10749;46.296;7.524;2023-07-24T08:04:27;94577.56;;;23.06;45.15
21182;BME280;10749;46.296;7.524;2023-07-24T08:06:53;94589.41;;;22.99;45.51
21182;BME280;10749;46.296;7.524;2023-07-24T08:09:18;94593.19;;;23.04;44.51
21182;BME280;10749;46.296;7.524;2023-07-24T08:11:43;94597.59;;;23.15;44.82
21182;BME280;10749;46.296;7.524;2023-07-24T08:14:09;94572.78;;;23.28;44.61
21182;BME280;10749;46.296;7.524;2023-07-24T08:16:34;94603.63;;;23.42;44.90
21182;BME280;10749;46.296;7.524;2023-07-24T08:18:59;94616.09;;;23.48;45.36
21182;BME280;10749;46.296;7.524;2023-07-24T08:21:24;94599.88;;;23.48;44.71
21182;BME280;10749;46.296;7.524;2023-07-24T08:23:50;94588.75;;;23.34;44.66
21182;BME280;10749;46.296;7.524;2023-07-24T08:26:15;94591.69;;;23.28;44.75
21182;BME280;10749;46.296;7.524;2023-07-24T08:28:40;94577.03;;;23.09;44.96
21182;BME280;10749;46.296;7.524;2023-07-24T08:31:08;94584.00;;;22.99;45.20
21182;BME280;10749;46.296;7.524;2023-07-24T08:33:33;94582.50;;;23.19;45.45
21182;BME280;10749;46.296;7.524;2023-07-24T08:36:03;94575.53;;;23.38;45.50
21182;BME280;10749;46.296;7.524;2023-07-24T08:38:29;94572.44;;;23.76;45.79
21182;BME280;10749;46.296;7.524;2023-07-24T08:41:11;94563.78;;;24.00;45.55
21182;BME280;10749;46.296;7.524;2023-07-24T08:43:39;94565.72;;;24.09;45.77
21182;BME280;10749;46.296;7.524;2023-07-24T08:46:05;94554.38;;;24.17;45.48
21182;BME280;10749;46.296;7.524;2023-07-24T08:48:36;94536.78;;;24.25;45.61
21182;BME280;10749;46.296;7.524;2023-07-24T08:51:21;94538.44;;;24.26;45.59
21182;BME280;10749;46.296;7.524;2023-07-24T08:53:49;94504.34;;;24.25;45.75
21182;BME280;10749;46.296;7.524;2023-07-24T08:56:14;94434.59;;;24.22;45.70
21182;BME280;10749;46.296;7.524;2023-07-24T08:58:40;94434.59;;;24.22;46.35
21182;BME280;10749;46.296;7.524;2023-07-24T09:01:06;94457.06;;;24.22;46.47
21182;BME280;10749;46.296;7.524;2023-07-24T09:03:32;94446.50;;;24.26;45.96
21182;BME280;10749;46.296;7.524;2023-07-24T09:05:58;94460.53;;;24.38;45.84
21182;BME280;10749;46.296;7.524;2023-07-24T09:08:40;94460.47;;;24.58;46.01
21182;BME280;10749;46.296;7.524;2023-07-24T09:11:07;94455.03;;;24.63;46.27
21182;BME280;10749;46.296;7.524;2023-07-24T09:13:34;94452.59;;;24.67;46.47
21182;BME280;10749;46.296;7.524;2023-07-24T09:16:00;94458.84;;;24.52;45.35
21182;BME280;10749;46.296;7.524;2023-07-24T09:18:26;94448.63;;;24.39;44.89
21182;BME280;10749;46.296;7.524;2023-07-24T09:20:52;94453.47;;;24.42;45.54
21182;BME280;10749;46.296;7.524;2023-07-24T09:23:26;94468.63;;;24.43;45.05
21182;BME280;10749;46.296;7.524;2023-07-24T09:25:52;94465.13;;;24.43;45.48
21182;BME280;10749;46.296;7.524;2023-07-24T09:28:18;94460.47;;;24.58;46.01
21182;BME280;10749;46.296;7.524;2023-07-24T09:30:57;94471.53;;;24.72;46.17
21182;BME280;10749;46.296;7.524;2023-07-24T09:33:43;94475.00;;;24.77;46.38
21182;BME280;10749;46.296;7.524;2023-07-24T09:36:09;94489.66;;;24.66;46.51
21182;BME280;10749;46.296;7.524;2023-07-24T09:38:37;94492.94;;;24.53;46.34
21182;BME280;10749;46.296;7.524;2023-07-24T09:41:03;94504.59;;;24.39;46.62
21182;BME280;10749;46.296;7.524;2023-07-24T09:43:29;94486.50;;;24.34;46.69
21182;BME280;10749;46.296;7.524;2023-07-24T09:45:56;94467.56;;;24.39;46.40
21182;BME280;10749;46.296;7.524;2023-07-24T09:48:26;94482.72;;;24.25;46.69
21182;BME280;10749;46.296;7.524;2023-07-24T09:50:56;94499.47;;;24.02;47.31
21182;BME280;10749;46.296;7.524;2023-07-24T09:53:43;94495.97;;;24.01;46.47
21182;BME280;10749;46.296;7.524;2023-07-24T09:56:08;94510.28;;;23.97;46.04
21182;BME280;10749;46.296;7.524;2023-07-24T09:58:36;94527.84;;;23.94;46.32
21182;BME280;10749;46.296;7.524;2023-07-24T10:01:03;94512.44;;;24.00;46.62
21182;BME280;10749;46.296;7.524;2023-07-24T10:03:33;94490.81;;;24.10;46.81
21182;BME280;10749;46.296;7.524;2023-07-24T10:05:59;94454.59;;;24.21;46.98
21182;BME280;10749;46.296;7.524;2023-07-24T10:08:25;94458.91;;;24.27;46.84
21182;BME280;10749;46.296;7.524;2023-07-24T10:10:50;94469.50;;;24.18;47.35
21182;BME280;10749;46.296;7.524;2023-07-24T10:13:19;94488.38;;;24.13;46.89
21182;BME280;10749;46.296;7.524;2023-07-24T10:15:46;94501.63;;;24.05;47.10
21182;BME280;10749;46.296;7.524;2023-07-24T10:18:12;94534.06;;;23.89;47.45
21182;BME280;10749;46.296;7.524;2023-07-24T10:20:41;94543.78;;;23.75;47.73
21182;BME280;10749;46.296;7.524;2023-07-24T10:23:09;94511.88;;;23.62;47.09
21182;BME280;10749;46.296;7.524;2023-07-24T10:25:37;94487.84;;;23.56;46.96
21182;BME280;10749;46.296;7.524;2023-07-24T10:28:04;94491.88;;;23.43;46.43
21182;BME280;10749;46.296;7.524;2023-07-24T10:30:41;94497.22;;;23.38;46.75
21182;BME280;10749;46.296;7.524;2023-07-24T10:33:11;94533.19;;;23.54;47.36
21182;BME280;10749;46.296;7.524;2023-07-24T10:35:49;94525.91;;;23.54;47.58
21182;BME280;10749;46.296;7.524;2023-07-24T10:38:37;94530.47;;;23.49;46.68
21182;BME280;10749;46.296;7.524;2023-07-24T10:41:03;94527.19;;;23.41;46.23
21182;BME280;10749;46.296;7.524;2023-07-24T10:44:00;94540.97;;;23.40;46.78
21182;BME280;10749;46.296;7.524;2023-07-24T10:46:35;94473.19;;;23.31;47.05
21182;BME280;10749;46.296;7.524;2023-07-24T10:49:02;94516.34;;;23.21;46.65
21182;BME280;10749;46.296;7.524;2023-07-24T10:51:29;94547.34;;;23.09;47.06
21182;BME280;10749;46.296;7.524;2023-07-24T10:53:54;94495.47;;;22.96;47.45
21182;BME280;10749;46.296;7.524;2023-07-24T10:56:20;94492.47;;;22.88;47.96
21182;BME280;10749;46.296;7.524;2023-07-24T10:58:45;94510.56;;;22.87;48.39
21182;BME280;10749;46.296;7.524;2023-07-24T11:01:11;94519.78;;;22.96;48.49
21182;BME280;10749;46.296;7.524;2023-07-24T11:03:38;94520.63;;;23.07;49.00
21182;BME280;10749;46.296;7.524;2023-07-24T11:06:04;94508.78;;;23.13;49.75
21182;BME280;10749;46.296;7.524;2023-07-24T11:08:31;94486.91;;;23.20;50.04
21182;BME280;10749;46.296;7.524;2023-07-24T11:10:58;94486.41;;;23.33;49.92
21182;BME280;10749;46.296;7.524;2023-07-24T11:13:25;94489.69;;;23.45;49.92
21182;BME280;10749;46.296;7.524;2023-07-24T11:15:52;94497.28;;;23.53;50.00
21182;BME280;10749;46.296;7.524;2023-07-24T11:18:19;94488.63;;;23.61;50.67
21182;BME280;10749;46.296;7.524;2023-07-24T11:20:50;94492.97;;;23.47;50.23
21182;BME280;10749;46.296;7.524;2023-07-24T11:23:16;94478.88;;;23.35;49.37
21182;BME280;10749;46.296;7.524;2023-07-24T11:25:41;94469.66;;;23.36;49.69
21182;BME280;10749;46.296;7.524;2023-07-24T11:28:09;94457.28;;;23.45;49.27
21182;BME280;10749;46.296;7.524;2023-07-24T11:30:35;94464.34;;;23.51;49.41
21182;BME280;10749;46.296;7.524;2023-07-24T11:33:02;94464.34;;;23.56;49.51
21182;BME280;10749;46.296;7.524;2023-07-24T11:35:28;94459.22;;;23.55;49.48
21182;BME280;10749;46.296;7.524;2023-07-24T11:37:54;94433.00;;;23.60;50.19
21182;BME280;10749;46.296;7.524;2023-07-24T11:40:19;94433.56;;;23.72;50.34
21182;BME280;10749;46.296;7.524;2023-07-24T11:42:47;94424.88;;;23.96;50.02
21182;BME280;10749;46.296;7.524;2023-07-24T11:45:13;94407.03;;;24.15;50.23
21182;BME280;10749;46.296;7.524;2023-07-24T11:47:46;94418.34;;;24.32;50.28
21182;BME280;10749;46.296;7.524;2023-07-24T11:50:12;94417.19;;;24.53;50.38
21182;BME280;10749;46.296;7.524;2023-07-24T11:52:39;94404.94;;;24.76;50.24
21182;BME280;10749;46.296;7.524;2023-07-24T11:55:05;94387.91;;;24.70;50.34
21182;BME280;10749;46.296;7.524;2023-07-24T11:57:31;94377.41;;;24.64;50.05
21182;BME280;10749;46.296;7.524;2023-07-24T11:59:56;94378.22;;;24.59;49.33
21182;BME280;10749;46.296;7.524;2023-07-24T12:02:27;94367.34;;;24.64;49.48
21182;BME280;10749;46.296;7.524;2023-07-24T12:04:57;94361.63;;;24.76;50.36
21182;BME280;10749;46.296;7.524;2023-07-24T12:07:33;94357.53;;;24.89;50.34
21182;BME280;10749;46.296;7.524;2023-07-24T12:10:00;94358.59;;;24.93;50.03
21182;BME280;10749;46.296;7.524;2023-07-24T12:12:25;94358.59;;;24.93;50.38
21182;BME280;10749;46.296;7.524;2023-07-24T12:14:50;94345.59;;;24.95;50.51
21182;BME280;10749;46.296;7.524;2023-07-24T12:17:18;94337.88;;;25.12;50.00
21182;BME280;10749;46.296;7.524;2023-07-24T12:19:45;94333.56;;;25.11;49.00
21182;BME280;10749;46.296;7.524;2023-07-24T12:22:10;94316.28;;;25.02;49.08
21182;BME280;10749;46.296;7.524;2023-07-24T12:24:35;94312.06;;;25.24;49.47
21182;BME280;10749;46.296;7.524;2023-07-24T12:27:00;94302.13;;;25.15;49.97
21182;BME280;10749;46.296;7.524;2023-07-24T12:29:26;94302.00;;;25.30;49.90
21182;BME280;10749;46.296;7.524;2023-07-24T12:31:51;94295.63;;;25.79;50.11
21182;BME280;10749;46.296;7.524;2023-07-24T12:34:16;94290.44;;;26.06;49.94
21182;BME280;10749;46.296;7.524;2023-07-24T12:36:42;94282.38;;;26.25;49.91
21182;BME280;10749;46.296;7.524;2023-07-24T12:39:07;94287.09;;;26.38;49.68
21182;BME280;10749;46.296;7.524;2023-07-24T12:41:32;94276.84;;;26.53;49.86
21182;BME280;10749;46.296;7.524;2023-07-24T12:43:57;94269.88;;;26.47;49.85
21182;BME280;10749;46.296;7.524;2023-07-24T12:46:23;94282.78;;;26.37;49.55
21182;BME280;10749;46.296;7.524;2023-07-24T12:48:48;94270.75;;;26.19;49.09
21182;BME280;10749;46.296;7.524;2023-07-24T12:51:13;94268.78;;;26.01;48.83
21182;BME280;10749;46.296;7.524;2023-07-24T12:53:39;94264.47;;;26.00;49.07
21182;BME280;10749;46.296;7.524;2023-07-24T12:56:04;94259.13;;;25.95;49.61